Cedar Grove, North Carolina
Current Conditions -  °F | °C
As of 8:15 PM on Wednesday 22 Oct 2014 (Local Time) from KSIF Reporting Station
Clear Clear  
Wind Chill: 52°   Ceiling: Unl
Heat Index: 52°   Visibility: 10mi
Dew Point: 41°   Wind: 5mph
Humidity: 66%   Direction: 310°NW
Pressure: 30.06"   Gusts: NA
Location:  36.5°N, 79.73°W
Report Text: KSIF 230015Z AUTO 31004KT 10SM CLR 11/05 A3006 RMK AO2 T01120051
Loading
Personal Weather Stations






























Interactive Weather Map
Tropical Storm Tracking
New forecast layout! Learn more

10-Day Weather Forecast

Advertisements
Track Severe Weather on mobile